sensor_id;sensor_type;location;lat;lon;timestamp;temperature;humidity
22069;DHT22;13887;57.196;-2.100;2024-02-23T00:01:12;5.66;76.16
22069;DHT22;13887;57.196;-2.100;2024-02-23T00:03:39;5.66;76.08
22069;DHT22;13887;57.196;-2.100;2024-02-23T00:06:07;5.66;75.38
22069;DHT22;13887;57.196;-2.100;2024-02-23T00:08:36;5.66;76.24
22069;DHT22;13887;57.196;-2.100;2024-02-23T00:11:05;5.65;76.06
22069;DHT22;13887;57.196;-2.100;2024-02-23T00:13:33;5.62;75.96
22069;DHT22;13887;57.196;-2.100;2024-02-23T00:16:00;5.59;76.31
22069;DHT22;13887;57.196;-2.100;2024-02-23T00:18:28;5.57;76.20
22069;DHT22;13887;57.196;-2.100;2024-02-23T00:20:55;5.59;76.30
22069;DHT22;13887;57.196;-2.100;2024-02-23T00:23:23;5.53;76.24
22069;DHT22;13887;57.196;-2.100;2024-02-23T00:25:51;5.55;76.22
22069;DHT22;13887;57.196;-2.100;2024-02-23T00:28:18;5.54;76.26
22069;DHT22;13887;57.196;-2.100;2024-02-23T00:30:45;5.55;76.04
22069;DHT22;13887;57.196;-2.100;2024-02-23T00:33:13;5.54;76.12
22069;DHT22;13887;57.196;-2.100;2024-02-23T00:35:40;5.50;76.17
22069;DHT22;13887;57.196;-2.100;2024-02-23T00:38:07;5.49;76.30
22069;DHT22;13887;57.196;-2.100;2024-02-23T00:40:35;5.50;76.18
22069;DHT22;13887;57.196;-2.100;2024-02-23T00:43:02;5.51;75.69
22069;DHT22;13887;57.196;-2.100;2024-02-23T00:45:30;5.46;75.62
22069;DHT22;13887;57.196;-2.100;2024-02-23T00:47:57;5.46;75.62
22069;DHT22;13887;57.196;-2.100;2024-02-23T00:50:24;5.46;75.78
22069;DHT22;13887;57.196;-2.100;2024-02-23T00:52:54;5.47;75.80
22069;DHT22;13887;57.196;-2.100;2024-02-23T00:55:21;5.41;75.79
22069;DHT22;13887;57.196;-2.100;2024-02-23T00:57:49;5.41;75.55
22069;DHT22;13887;57.196;-2.100;2024-02-23T01:00:16;5.40;75.73
22069;DHT22;13887;57.196;-2.100;2024-02-23T01:02:43;5.42;75.86
22069;DHT22;13887;57.196;-2.100;2024-02-23T01:05:11;5.45;75.59
22069;DHT22;13887;57.196;-2.100;2024-02-23T01:07:38;5.41;75.93
22069;DHT22;13887;57.196;-2.100;2024-02-23T01:10:05;5.43;75.99
22069;DHT22;13887;57.196;-2.100;2024-02-23T01:12:33;5.40;75.85
22069;DHT22;13887;57.196;-2.100;2024-02-23T01:15:00;5.40;76.06
22069;DHT22;13887;57.196;-2.100;2024-02-23T01:17:31;5.40;76.40
22069;DHT22;13887;57.196;-2.100;2024-02-23T01:19:59;5.40;75.88
22069;DHT22;13887;57.196;-2.100;2024-02-23T01:22:27;5.40;76.18
22069;DHT22;13887;57.196;-2.100;2024-02-23T01:24:54;5.40;76.18
22069;DHT22;13887;57.196;-2.100;2024-02-23T01:27:21;5.37;76.24
22069;DHT22;13887;57.196;-2.100;2024-02-23T01:29:49;5.37;76.17
22069;DHT22;13887;57.196;-2.100;2024-02-23T01:32:16;5.36;76.00
22069;DHT22;13887;57.196;-2.100;2024-02-23T01:34:43;5.33;75.91
22069;DHT22;13887;57.196;-2.100;2024-02-23T01:37:11;5.31;75.96
22069;DHT22;13887;57.196;-2.100;2024-02-23T01:39:38;5.30;75.44
22069;DHT22;13887;57.196;-2.100;2024-02-23T01:42:06;5.26;76.13
22069;DHT22;13887;57.196;-2.100;2024-02-23T01:44:33;5.33;76.23
22069;DHT22;13887;57.196;-2.100;2024-02-23T01:47:00;5.26;75.80
22069;DHT22;13887;57.196;-2.100;2024-02-23T01:49:28;5.23;75.96
22069;DHT22;13887;57.196;-2.100;2024-02-23T01:52:01;5.24;75.79
22069;DHT22;13887;57.196;-2.100;2024-02-23T01:54:29;5.20;75.60
22069;DHT22;13887;57.196;-2.100;2024-02-23T01:56:58;5.21;75.78
22069;DHT22;13887;57.196;-2.100;2024-02-23T01:59:45;5.21;75.46
22069;DHT22;13887;57.196;-2.100;2024-02-23T02:02:12;5.22;75.85
22069;DHT22;13887;57.196;-2.100;2024-02-23T02:04:40;5.25;76.30
22069;DHT22;13887;57.196;-2.100;2024-02-23T02:07:07;5.23;75.31
22069;DHT22;13887;57.196;-2.100;2024-02-23T02:09:35;5.21;76.06
22069;DHT22;13887;57.196;-2.100;2024-02-23T02:12:02;5.21;75.52
22069;DHT22;13887;57.196;-2.100;2024-02-23T02:14:30;5.20;75.42
22069;DHT22;13887;57.196;-2.100;2024-02-23T02:16:58;5.20;75.59
22069;DHT22;13887;57.196;-2.100;2024-02-23T02:19:25;5.21;75.65
22069;DHT22;13887;57.196;-2.100;2024-02-23T02:21:53;5.21;75.79
22069;DHT22;13887;57.196;-2.100;2024-02-23T02:24:20;5.16;75.11
22069;DHT22;13887;57.196;-2.100;2024-02-23T02:26:48;5.12;75.70
22069;DHT22;13887;57.196;-2.100;2024-02-23T02:29:17;5.15;76.16
22069;DHT22;13887;57.196;-2.100;2024-02-23T02:31:44;5.13;76.15
22069;DHT22;13887;57.196;-2.100;2024-02-23T02:34:11;5.10;76.07
22069;DHT22;13887;57.196;-2.100;2024-02-23T02:36:41;5.09;75.74
22069;DHT22;13887;57.196;-2.100;2024-02-23T02:39:09;5.08;75.63
22069;DHT22;13887;57.196;-2.100;2024-02-23T02:41:37;5.06;75.74
22069;DHT22;13887;57.196;-2.100;2024-02-23T02:44:04;5.07;75.51
22069;DHT22;13887;57.196;-2.100;2024-02-23T02:46:32;5.09;75.72
22069;DHT22;13887;57.196;-2.100;2024-02-23T02:48:59;5.09;76.24
22069;DHT22;13887;57.196;-2.100;2024-02-23T02:51:26;5.07;75.89
22069;DHT22;13887;57.196;-2.100;2024-02-23T02:53:53;5.10;75.85
22069;DHT22;13887;57.196;-2.100;2024-02-23T02:56:21;5.08;76.15
22069;DHT22;13887;57.196;-2.100;2024-02-23T02:58:48;5.07;75.61
22069;DHT22;13887;57.196;-2.100;2024-02-23T03:01:16;5.08;75.92
22069;DHT22;13887;57.196;-2.100;2024-02-23T03:03:43;5.06;76.40
22069;DHT22;13887;57.196;-2.100;2024-02-23T03:06:10;5.07;76.40
22069;DHT22;13887;57.196;-2.100;2024-02-23T03:08:38;5.08;76.28
22069;DHT22;13887;57.196;-2.100;2024-02-23T03:11:05;5.07;76.22
22069;DHT22;13887;57.196;-2.100;2024-02-23T03:13:32;5.08;76.14
22069;DHT22;13887;57.196;-2.100;2024-02-23T03:15:59;5.05;76.38
22069;DHT22;13887;57.196;-2.100;2024-02-23T03:18:27;5.06;76.21
22069;DHT22;13887;57.196;-2.100;2024-02-23T03:20:57;5.05;76.30
22069;DHT22;13887;57.196;-2.100;2024-02-23T03:23:24;5.02;76.48
22069;DHT22;13887;57.196;-2.100;2024-02-23T03:25:52;5.05;76.38
22069;DHT22;13887;57.196;-2.100;2024-02-23T03:28:19;5.02;76.47
22069;DHT22;13887;57.196;-2.100;2024-02-23T03:30:46;5.03;76.44
22069;DHT22;13887;57.196;-2.100;2024-02-23T03:33:13;5.03;76.21
22069;DHT22;13887;57.196;-2.100;2024-02-23T03:35:41;5.04;76.41
22069;DHT22;13887;57.196;-2.100;2024-02-23T03:38:08;5.02;76.45
22069;DHT22;13887;57.196;-2.100;2024-02-23T03:40:35;5.00;75.97
22069;DHT22;13887;57.196;-2.100;2024-02-23T03:43:03;5.02;75.90
22069;DHT22;13887;57.196;-2.100;2024-02-23T03:45:30;5.03;76.25
22069;DHT22;13887;57.196;-2.100;2024-02-23T03:47:58;5.05;76.35
22069;DHT22;13887;57.196;-2.100;2024-02-23T03:50:26;5.04;76.40
22069;DHT22;13887;57.196;-2.100;2024-02-23T03:52:53;5.05;76.26
22069;DHT22;13887;57.196;-2.100;2024-02-23T03:55:21;5.04;76.15
22069;DHT22;13887;57.196;-2.100;2024-02-23T03:57:49;5.04;76.12
22069;DHT22;13887;57.196;-2.100;2024-02-23T04:00:17;5.01;76.28
22069;DHT22;13887;57.196;-2.100;2024-02-23T04:02:46;5.02;76.66
22069;DHT22;13887;57.196;-2.100;2024-02-23T04:05:13;5.02;76.62
22069;DHT22;13887;57.196;-2.100;2024-02-23T04:07:41;5.01;76.59
22069;DHT22;13887;57.196;-2.100;2024-02-23T04:10:08;4.98;76.79
22069;DHT22;13887;57.196;-2.100;2024-02-23T04:12:35;5.00;76.49
22069;DHT22;13887;57.196;-2.100;2024-02-23T04:15:03;5.00;76.74
22069;DHT22;13887;57.196;-2.100;2024-02-23T04:17:30;4.96;76.68
22069;DHT22;13887;57.196;-2.100;2024-02-23T04:20:00;4.97;76.90
22069;DHT22;13887;57.196;-2.100;2024-02-23T04:22:32;4.96;77.12
22069;DHT22;13887;57.196;-2.100;2024-02-23T04:24:59;4.95;76.77
22069;DHT22;13887;57.196;-2.100;2024-02-23T04:27:26;4.95;77.11
22069;DHT22;13887;57.196;-2.100;2024-02-23T04:29:53;4.92;77.16
22069;DHT22;13887;57.196;-2.100;2024-02-23T04:32:21;4.92;77.40
22069;DHT22;13887;57.196;-2.100;2024-02-23T04:34:48;4.93;77.38
22069;DHT22;13887;57.196;-2.100;2024-02-23T04:37:15;4.93;77.13
22069;DHT22;13887;57.196;-2.100;2024-02-23T04:39:45;4.91;77.11
22069;DHT22;13887;57.196;-2.100;2024-02-23T04:42:13;4.88;77.12
22069;DHT22;13887;57.196;-2.100;2024-02-23T04:44:43;4.86;76.99
22069;DHT22;13887;57.196;-2.100;2024-02-23T04:47:10;4.84;76.70
22069;DHT22;13887;57.196;-2.100;2024-02-23T04:49:37;4.83;77.17
22069;DHT22;13887;57.196;-2.100;2024-02-23T04:52:05;4.81;77.51
22069;DHT22;13887;57.196;-2.100;2024-02-23T04:54:33;4.79;77.23
22069;DHT22;13887;57.196;-2.100;2024-02-23T04:57:00;4.79;77.25
22069;DHT22;13887;57.196;-2.100;2024-02-23T04:59:27;4.80;77.45
22069;DHT22;13887;57.196;-2.100;2024-02-23T05:01:55;4.77;77.42
22069;DHT22;13887;57.196;-2.100;2024-02-23T05:04:22;4.76;77.17
22069;DHT22;13887;57.196;-2.100;2024-02-23T05:06:50;4.77;77.22
22069;DHT22;13887;57.196;-2.100;2024-02-23T05:09:17;4.74;77.40
22069;DHT22;13887;57.196;-2.100;2024-02-23T05:11:44;4.73;77.21
22069;DHT22;13887;57.196;-2.100;2024-02-23T05:14:13;4.72;76.95
22069;DHT22;13887;57.196;-2.100;2024-02-23T05:16:41;4.75;77.46
22069;DHT22;13887;57.196;-2.100;2024-02-23T05:19:08;4.72;76.83
22069;DHT22;13887;57.196;-2.100;2024-02-23T05:21:35;4.73;77.20
22069;DHT22;13887;57.196;-2.100;2024-02-23T05:24:02;4.69;77.40
22069;DHT22;13887;57.196;-2.100;2024-02-23T05:26:30;4.68;77.19
22069;DHT22;13887;57.196;-2.100;2024-02-23T05:28:57;4.69;77.29
22069;DHT22;13887;57.196;-2.100;2024-02-23T05:31:43;4.66;77.64
22069;DHT22;13887;57.196;-2.100;2024-02-23T05:34:11;4.66;77.26
22069;DHT22;13887;57.196;-2.100;2024-02-23T05:36:38;4.66;77.21
22069;DHT22;13887;57.196;-2.100;2024-02-23T05:39:07;4.65;77.21
22069;DHT22;13887;57.196;-2.100;2024-02-23T05:41:36;4.64;77.15
22069;DHT22;13887;57.196;-2.100;2024-02-23T05:44:04;4.60;77.24
22069;DHT22;13887;57.196;-2.100;2024-02-23T05:46:33;4.60;76.98
22069;DHT22;13887;57.196;-2.100;2024-02-23T05:49:01;4.58;77.34
22069;DHT22;13887;57.196;-2.100;2024-02-23T05:51:30;4.57;77.63
22069;DHT22;13887;57.196;-2.100;2024-02-23T05:53:58;4.58;77.59
22069;DHT22;13887;57.196;-2.100;2024-02-23T05:56:25;4.58;77.47
22069;DHT22;13887;57.196;-2.100;2024-02-23T05:58:53;4.59;77.63
22069;DHT22;13887;57.196;-2.100;2024-02-23T06:01:20;4.60;77.49
22069;DHT22;13887;57.196;-2.100;2024-02-23T06:03:47;4.57;77.33
22069;DHT22;13887;57.196;-2.100;2024-02-23T06:06:14;4.56;77.32
22069;DHT22;13887;57.196;-2.100;2024-02-23T06:08:42;4.56;77.30
22069;DHT22;13887;57.196;-2.100;2024-02-23T06:11:10;4.56;77.33
22069;DHT22;13887;57.196;-2.100;2024-02-23T06:13:37;4.54;77.23
22069;DHT22;13887;57.196;-2.100;2024-02-23T06:16:09;4.53;77.27
22069;DHT22;13887;57.196;-2.100;2024-02-23T06:18:37;4.54;77.51
22069;DHT22;13887;57.196;-2.100;2024-02-23T06:21:13;4.52;77.55
22069;DHT22;13887;57.196;-2.100;2024-02-23T06:23:41;4.51;77.51
22069;DHT22;13887;57.196;-2.100;2024-02-23T06:26:09;4.50;77.60
22069;DHT22;13887;57.196;-2.100;2024-02-23T06:28:37;4.52;77.77
22069;DHT22;13887;57.196;-2.100;2024-02-23T06:31:05;4.51;77.53
22069;DHT22;13887;57.196;-2.100;2024-02-23T06:33:33;4.52;77.50
22069;DHT22;13887;57.196;-2.100;2024-02-23T06:36:00;4.51;77.59
22069;DHT22;13887;57.196;-2.100;2024-02-23T06:38:28;4.49;77.38
22069;DHT22;13887;57.196;-2.100;2024-02-23T06:40:56;4.44;77.69
22069;DHT22;13887;57.196;-2.100;2024-02-23T06:43:23;4.42;77.24
22069;DHT22;13887;57.196;-2.100;2024-02-23T06:45:51;4.37;77.47
22069;DHT22;13887;57.196;-2.100;2024-02-23T06:48:18;4.38;77.33
22069;DHT22;13887;57.196;-2.100;2024-02-23T06:50:45;4.35;77.18
22069;DHT22;13887;57.196;-2.100;2024-02-23T06:53:13;4.38;77.62
22069;DHT22;13887;57.196;-2.100;2024-02-23T06:55:40;4.36;77.64
22069;DHT22;13887;57.196;-2.100;2024-02-23T06:58:08;4.34;77.79
22069;DHT22;13887;57.196;-2.100;2024-02-23T07:00:37;4.35;77.30
22069;DHT22;13887;57.196;-2.100;2024-02-23T07:03:05;4.33;77.30
22069;DHT22;13887;57.196;-2.100;2024-02-23T07:05:32;4.34;77.38
22069;DHT22;13887;57.196;-2.100;2024-02-23T07:08:00;4.33;77.42
22069;DHT22;13887;57.196;-2.100;2024-02-23T07:10:27;4.29;76.92
22069;DHT22;13887;57.196;-2.100;2024-02-23T07:12:55;4.27;77.01
22069;DHT22;13887;57.196;-2.100;2024-02-23T07:15:23;4.23;77.03
22069;DHT22;13887;57.196;-2.100;2024-02-23T07:17:52;4.28;77.28
22069;DHT22;13887;57.196;-2.100;2024-02-23T07:20:19;4.26;77.05
22069;DHT22;13887;57.196;-2.100;2024-02-23T07:22:47;4.26;76.63
22069;DHT22;13887;57.196;-2.100;2024-02-23T07:25:18;4.28;77.15
22069;DHT22;13887;57.196;-2.100;2024-02-23T07:27:47;4.24;77.29
22069;DHT22;13887;57.196;-2.100;2024-02-23T07:30:16;4.27;77.45
22069;DHT22;13887;57.196;-2.100;2024-02-23T07:32:44;4.24;77.30
22069;DHT22;13887;57.196;-2.100;2024-02-23T07:35:15;4.27;77.18
22069;DHT22;13887;57.196;-2.100;2024-02-23T07:37:43;4.27;77.24
22069;DHT22;13887;57.196;-2.100;2024-02-23T07:40:10;4.29;77.17
22069;DHT22;13887;57.196;-2.100;2024-02-23T07:42:37;4.31;77.34
22069;DHT22;13887;57.196;-2.100;2024-02-23T07:45:06;4.31;77.31
22069;DHT22;13887;57.196;-2.100;2024-02-23T07:47:34;4.32;77.27
22069;DHT22;13887;57.196;-2.100;2024-02-23T07:50:02;4.31;77.56
22069;DHT22;13887;57.196;-2.100;2024-02-23T07:52:29;4.34;77.01
22069;DHT22;13887;57.196;-2.100;2024-02-23T07:54:56;4.33;77.38
22069;DHT22;13887;57.196;-2.100;2024-02-23T07:57:23;4.32;77.03
22069;DHT22;13887;57.196;-2.100;2024-02-23T07:59:51;4.32;77.00
22069;DHT22;13887;57.196;-2.100;2024-02-23T08:02:18;4.34;76.98
22069;DHT22;13887;57.196;-2.100;2024-02-23T08:04:46;4.32;77.50
22069;DHT22;13887;57.196;-2.100;2024-02-23T08:07:15;4.30;77.64
22069;DHT22;13887;57.196;-2.100;2024-02-23T08:09:42;3.74;78.40
22069;DHT22;13887;57.196;-2.100;2024-02-23T08:12:09;3.97;78.08
22069;DHT22;13887;57.196;-2.100;2024-02-23T08:14:36;4.12;77.79
22069;DHT22;13887;57.196;-2.100;2024-02-23T08:17:04;4.21;77.65
22069;DHT22;13887;57.196;-2.100;2024-02-23T08:19:32;4.23;77.41
22069;DHT22;13887;57.196;-2.100;2024-02-23T08:21:59;4.24;77.48
22069;DHT22;13887;57.196;-2.100;2024-02-23T08:24:26;4.23;77.38
22069;DHT22;13887;57.196;-2.100;2024-02-23T08:26:53;4.24;77.46
22069;DHT22;13887;57.196;-2.100;2024-02-23T08:29:21;4.30;77.50
22069;DHT22;13887;57.196;-2.100;2024-02-23T08:31:48;4.27;77.53
22069;DHT22;13887;57.196;-2.100;2024-02-23T08:34:16;4.24;77.56
22069;DHT22;13887;57.196;-2.100;2024-02-23T08:36:44;4.24;77.28
22069;DHT22;13887;57.196;-2.100;2024-02-23T08:39:13;4.27;77.60
22069;DHT22;13887;57.196;-2.100;2024-02-23T08:41:40;4.31;77.31
22069;DHT22;13887;57.196;-2.100;2024-02-23T08:44:07;4.29;77.47
22069;DHT22;13887;57.196;-2.100;2024-02-23T08:46:35;4.30;77.50
22069;DHT22;13887;57.196;-2.100;2024-02-23T08:49:02;4.31;77.50
22069;DHT22;13887;57.196;-2.100;2024-02-23T08:51:29;4.33;77.51
22069;DHT22;13887;57.196;-2.100;2024-02-23T08:53:57;4.32;77.54
22069;DHT22;13887;57.196;-2.100;2024-02-23T08:56:30;4.33;77.33
22069;DHT22;13887;57.196;-2.100;2024-02-23T08:58:58;4.34;77.60
22069;DHT22;13887;57.196;-2.100;2024-02-23T09:01:26;4.36;77.59
22069;DHT22;13887;57.196;-2.100;2024-02-23T09:03:54;4.36;77.56
22069;DHT22;13887;57.196;-2.100;2024-02-23T09:06:22;4.37;77.71
22069;DHT22;13887;57.196;-2.100;2024-02-23T09:08:49;4.38;77.50
22069;DHT22;13887;57.196;-2.100;2024-02-23T09:11:17;4.36;77.54
22069;DHT22;13887;57.196;-2.100;2024-02-23T09:13:44;4.37;77.63
22069;DHT22;13887;57.196;-2.100;2024-02-23T09:16:11;4.38;77.53
22069;DHT22;13887;57.196;-2.100;2024-02-23T09:18:38;4.38;77.72
22069;DHT22;13887;57.196;-2.100;2024-02-23T09:21:06;4.38;77.58
22069;DHT22;13887;57.196;-2.100;2024-02-23T09:23:33;4.39;77.70
22069;DHT22;13887;57.196;-2.100;2024-02-23T09:26:01;4.39;77.82
22069;DHT22;13887;57.196;-2.100;2024-02-23T09:28:30;4.41;77.66
22069;DHT22;13887;57.196;-2.100;2024-02-23T09:30:58;4.38;77.75
22069;DHT22;13887;57.196;-2.100;2024-02-23T09:33:25;4.41;77.70
22069;DHT22;13887;57.196;-2.100;2024-02-23T09:35:52;4.39;77.44
22069;DHT22;13887;57.196;-2.100;2024-02-23T09:38:19;4.42;78.00
22069;DHT22;13887;57.196;-2.100;2024-02-23T09:40:47;4.42;77.83
22069;DHT22;13887;57.196;-2.100;2024-02-23T09:43:14;4.43;77.85
22069;DHT22;13887;57.196;-2.100;2024-02-23T09:45:44;4.45;77.81
22069;DHT22;13887;57.196;-2.100;2024-02-23T09:48:13;4.44;77.72
22069;DHT22;13887;57.196;-2.100;2024-02-23T09:50:42;4.45;78.01
22069;DHT22;13887;57.196;-2.100;2024-02-23T09:53:11;4.47;77.87
22069;DHT22;13887;57.196;-2.100;2024-02-23T09:55:40;4.48;77.82
22069;DHT22;13887;57.196;-2.100;2024-02-23T09:58:08;4.49;77.78
22069;DHT22;13887;57.196;-2.100;2024-02-23T10:00:36;4.50;77.65
22069;DHT22;13887;57.196;-2.100;2024-02-23T10:03:05;4.51;77.83
22069;DHT22;13887;57.196;-2.100;2024-02-23T10:05:33;4.52;77.89
22069;DHT22;13887;57.196;-2.100;2024-02-23T10:08:05;4.52;77.85
22069;DHT22;13887;57.196;-2.100;2024-02-23T10:10:33;4.56;77.98
22069;DHT22;13887;57.196;-2.100;2024-02-23T10:13:01;4.57;77.93
22069;DHT22;13887;57.196;-2.100;2024-02-23T10:15:31;4.58;77.80
22069;DHT22;13887;57.196;-2.100;2024-02-23T10:17:58;4.59;77.79
22069;DHT22;13887;57.196;-2.100;2024-02-23T10:20:26;4.62;77.89
22069;DHT22;13887;57.196;-2.100;2024-02-23T10:22:54;4.62;77.85
22069;DHT22;13887;57.196;-2.100;2024-02-23T10:25:21;4.63;78.00
22069;DHT22;13887;57.196;-2.100;2024-02-23T10:27:48;4.64;77.96
22069;DHT22;13887;57.196;-2.100;2024-02-23T10:30:16;4.65;78.08
22069;DHT22;13887;57.196;-2.100;2024-02-23T10:32:43;4.66;78.06
22069;DHT22;13887;57.196;-2.100;2024-02-23T10:35:14;4.65;77.94
22069;DHT22;13887;57.196;-2.100;2024-02-23T10:37:43;4.68;77.97
22069;DHT22;13887;57.196;-2.100;2024-02-23T10:40:16;4.68;77.89
22069;DHT22;13887;57.196;-2.100;2024-02-23T10:42:44;4.72;78.06
22069;DHT22;13887;57.196;-2.100;2024-02-23T10:45:18;4.71;78.21
22069;DHT22;13887;57.196;-2.100;2024-02-23T10:47:47;4.75;78.01
22069;DHT22;13887;57.196;-2.100;2024-02-23T10:50:15;4.73;78.05
22069;DHT22;13887;57.196;-2.100;2024-02-23T10:52:43;4.73;78.01
22069;DHT22;13887;57.196;-2.100;2024-02-23T10:55:11;4.75;78.34
22069;DHT22;13887;57.196;-2.100;2024-02-23T10:57:38;4.77;78.09
22069;DHT22;13887;57.196;-2.100;2024-02-23T11:00:09;4.77;78.11
22069;DHT22;13887;57.196;-2.100;2024-02-23T11:02:49;4.78;78.17
22069;DHT22;13887;57.196;-2.100;2024-02-23T11:05:18;4.78;78.16
22069;DHT22;13887;57.196;-2.100;2024-02-23T11:07:46;4.80;78.14
22069;DHT22;13887;57.196;-2.100;2024-02-23T11:10:18;4.79;78.40
22069;DHT22;13887;57.196;-2.100;2024-02-23T11:12:57;4.82;78.21
22069;DHT22;13887;57.196;-2.100;2024-02-23T11:15:29;4.82;77.96
22069;DHT22;13887;57.196;-2.100;2024-02-23T11:17:57;4.86;78.27
22069;DHT22;13887;57.196;-2.100;2024-02-23T11:20:34;4.87;78.21
22069;DHT22;13887;57.196;-2.100;2024-02-23T11:23:13;4.88;78.37
22069;DHT22;13887;57.196;-2.100;2024-02-23T11:25:40;4.89;78.43
22069;DHT22;13887;57.196;-2.100;2024-02-23T11:28:08;4.91;78.35
22069;DHT22;13887;57.196;-2.100;2024-02-23T11:30:35;4.91;78.52
22069;DHT22;13887;57.196;-2.100;2024-02-23T11:33:08;4.96;78.71
22069;DHT22;13887;57.196;-2.100;2024-02-23T11:35:35;5.00;78.53
22069;DHT22;13887;57.196;-2.100;2024-02-23T11:38:03;5.02;78.55
22069;DHT22;13887;57.196;-2.100;2024-02-23T11:40:32;5.05;78.71
22069;DHT22;13887;57.196;-2.100;2024-02-23T11:43:01;5.09;78.63
22069;DHT22;13887;57.196;-2.100;2024-02-23T11:45:29;5.10;78.55
22069;DHT22;13887;57.196;-2.100;2024-02-23T11:47:56;5.09;78.85
22069;DHT22;13887;57.196;-2.100;2024-02-23T11:50:23;5.11;78.95
22069;DHT22;13887;57.196;-2.100;2024-02-23T11:52:50;5.15;78.67
22069;DHT22;13887;57.196;-2.100;2024-02-23T11:55:21;5.13;78.85
22069;DHT22;13887;57.196;-2.100;2024-02-23T11:57:51;5.11;79.21
22069;DHT22;13887;57.196;-2.100;2024-02-23T12:00:31;5.10;79.29
22069;DHT22;13887;57.196;-2.100;2024-02-23T12:02:59;5.08;79.46
22069;DHT22;13887;57.196;-2.100;2024-02-23T12:05:26;5.05;79.40
22069;DHT22;13887;57.196;-2.100;2024-02-23T12:07:54;5.08;79.69
22069;DHT22;13887;57.196;-2.100;2024-02-23T12:10:22;5.08;79.60
22069;DHT22;13887;57.196;-2.100;2024-02-23T12:12:49;5.11;80.03
22069;DHT22;13887;57.196;-2.100;2024-02-23T12:15:17;5.09;79.78
22069;DHT22;13887;57.196;-2.100;2024-02-23T12:17:48;5.12;79.68
22069;DHT22;13887;57.196;-2.100;2024-02-23T12:20:15;5.10;79.79
22069;DHT22;13887;57.196;-2.100;2024-02-23T12:22:43;5.13;80.15
22069;DHT22;13887;57.196;-2.100;2024-02-23T12:25:12;5.16;79.99
22069;DHT22;13887;57.196;-2.100;2024-02-23T12:27:40;5.18;79.88
22069;DHT22;13887;57.196;-2.100;2024-02-23T12:30:14;5.16;80.08
22069;DHT22;13887;57.196;-2.100;2024-02-23T12:32:42;5.20;80.52
22069;DHT22;13887;57.196;-2.100;2024-02-23T12:35:11;5.21;80.11
22069;DHT22;13887;57.196;-2.100;2024-02-23T12:37:40;5.22;80.49
22069;DHT22;13887;57.196;-2.100;2024-02-23T12:40:11;5.27;80.36
22069;DHT22;13887;57.196;-2.100;2024-02-23T12:42:38;5.25;80.14
22069;DHT22;13887;57.196;-2.100;2024-02-23T12:45:05;5.27;80.22
22069;DHT22;13887;57.196;-2.100;2024-02-23T12:47:33;5.28;80.30
22069;DHT22;13887;57.196;-2.100;2024-02-23T12:50:01;5.33;80.37
22069;DHT22;13887;57.196;-2.100;2024-02-23T12:52:29;5.37;80.18
22069;DHT22;13887;57.196;-2.100;2024-02-23T12:54:56;5.40;80.38
22069;DHT22;13887;57.196;-2.100;2024-02-23T12:57:23;5.38;80.29
22069;DHT22;13887;57.196;-2.100;2024-02-23T12:59:51;5.41;80.40
22069;DHT22;13887;57.196;-2.100;2024-02-23T13:02:20;5.41;80.30
22069;DHT22;13887;57.196;-2.100;2024-02-23T13:04:48;5.41;80.30
22069;DHT22;13887;57.196;-2.100;2024-02-23T13:07:18;5.43;80.17
22069;DHT22;13887;57.196;-2.100;2024-02-23T13:09:45;5.48;80.27
22069;DHT22;13887;57.196;-2.100;2024-02-23T13:12:12;5.50;80.34
22069;DHT22;13887;57.196;-2.100;2024-02-23T13:14:40;5.53;80.36
22069;DHT22;13887;57.196;-2.100;2024-02-23T13:17:07;5.54;80.13
22069;DHT22;13887;57.196;-2.100;2024-02-23T13:19:34;5.57;80.20
22069;DHT22;13887;57.196;-2.100;2024-02-23T13:22:01;5.59;80.16
22069;DHT22;13887;57.196;-2.100;2024-02-23T13:24:29;5.59;80.41
22069;DHT22;13887;57.196;-2.100;2024-02-23T13:26:56;5.61;80.26
22069;DHT22;13887;57.196;-2.100;2024-02-23T13:29:23;5.61;80.47
22069;DHT22;13887;57.196;-2.100;2024-02-23T13:31:50;5.62;80.55
22069;DHT22;13887;57.196;-2.100;2024-02-23T13:34:19;5.62;80.62
22069;DHT22;13887;57.196;-2.100;2024-02-23T13:36:46;5.61;80.63
22069;DHT22;13887;57.196;-2.100;2024-02-23T13:39:14;5.62;80.78
22069;DHT22;13887;57.196;-2.100;2024-02-23T13:41:41;5.64;80.63
22069;DHT22;13887;57.196;-2.100;2024-02-23T13:44:08;5.68;80.69
22069;DHT22;13887;57.196;-2.100;2024-02-23T13:46:38;5.69;80.88
22069;DHT22;13887;57.196;-2.100;2024-02-23T13:49:07;5.71;80.60
22069;DHT22;13887;57.196;-2.100;2024-02-23T13:51:36;5.71;80.65
22069;DHT22;13887;57.196;-2.100;2024-02-23T13:54:03;5.74;80.43
22069;DHT22;13887;57.196;-2.100;2024-02-23T13:56:30;5.75;80.84
22069;DHT22;13887;57.196;-2.100;2024-02-23T13:58:58;5.78;81.04
22069;DHT22;13887;57.196;-2.100;2024-02-23T14:01:26;5.76;81.17
22069;DHT22;13887;57.196;-2.100;2024-02-23T14:03:53;5.78;80.95
22069;DHT22;13887;57.196;-2.100;2024-02-23T14:06:21;5.76;81.00
22069;DHT22;13887;57.196;-2.100;2024-02-23T14:08:48;5.79;80.71
22069;DHT22;13887;57.196;-2.100;2024-02-23T14:11:17;5.82;80.40
22069;DHT22;13887;57.196;-2.100;2024-02-23T14:13:46;5.81;80.69
22069;DHT22;13887;57.196;-2.100;2024-02-23T14:16:17;5.83;81.20
22069;DHT22;13887;57.196;-2.100;2024-02-23T14:18:44;5.82;81.20
22069;DHT22;13887;57.196;-2.100;2024-02-23T14:21:12;5.84;81.17
22069;DHT22;13887;57.196;-2.100;2024-02-23T14:23:41;5.85;80.98
22069;DHT22;13887;57.196;-2.100;2024-02-23T14:26:09;5.91;80.75
22069;DHT22;13887;57.196;-2.100;2024-02-23T14:28:36;5.92;80.71
22069;DHT22;13887;57.196;-2.100;2024-02-23T14:31:03;5.92;80.34
22069;DHT22;13887;57.196;-2.100;2024-02-23T14:33:32;5.93;80.35
22069;DHT22;13887;57.196;-2.100;2024-02-23T14:35:59;5.94;80.44
22069;DHT22;13887;57.196;-2.100;2024-02-23T14:38:27;5.92;80.82
22069;DHT22;13887;57.196;-2.100;2024-02-23T14:40:54;5.93;81.04
22069;DHT22;13887;57.196;-2.100;2024-02-23T14:43:21;5.92;80.97
22069;DHT22;13887;57.196;-2.100;2024-02-23T14:45:49;5.92;81.00
22069;DHT22;13887;57.196;-2.100;2024-02-23T14:48:18;5.94;80.95
22069;DHT22;13887;57.196;-2.100;2024-02-23T14:50:46;5.94;80.52
22069;DHT22;13887;57.196;-2.100;2024-02-23T14:53:14;5.95;78.43
22069;DHT22;13887;57.196;-2.100;2024-02-23T14:55:42;5.98;78.58
22069;DHT22;13887;57.196;-2.100;2024-02-23T14:58:09;6.00;78.70
22069;DHT22;13887;57.196;-2.100;2024-02-23T15:00:36;6.04;78.56
22069;DHT22;13887;57.196;-2.100;2024-02-23T15:03:04;6.04;77.77
22069;DHT22;13887;57.196;-2.100;2024-02-23T15:05:31;6.05;77.48
22069;DHT22;13887;57.196;-2.100;2024-02-23T15:07:59;6.07;77.04
22069;DHT22;13887;57.196;-2.100;2024-02-23T15:10:26;6.05;78.58
22069;DHT22;13887;57.196;-2.100;2024-02-23T15:12:55;6.01;78.34
22069;DHT22;13887;57.196;-2.100;2024-02-23T15:15:22;6.01;79.85
22069;DHT22;13887;57.196;-2.100;2024-02-23T15:17:49;6.04;79.96
22069;DHT22;13887;57.196;-2.100;2024-02-23T15:20:17;6.04;79.30
22069;DHT22;13887;57.196;-2.100;2024-02-23T15:22:44;6.02;79.42
22069;DHT22;13887;57.196;-2.100;2024-02-23T15:25:13;6.02;79.92
22069;DHT22;13887;57.196;-2.100;2024-02-23T15:27:42;6.04;78.82
22069;DHT22;13887;57.196;-2.100;2024-02-23T15:30:09;6.01;79.20
22069;DHT22;13887;57.196;-2.100;2024-02-23T15:32:37;6.02;80.11
22069;DHT22;13887;57.196;-2.100;2024-02-23T15:35:05;6.05;79.78